sensor_id;sensor_type;location;lat;lon;timestamp;temperature;humidity
23568;DHT22;11962;50.838;4.430;2022-09-09T00:02:27;16.20;99.90
23568;DHT22;11962;50.838;4.430;2022-09-09T00:04:58;16.30;99.90
23568;DHT22;11962;50.838;4.430;2022-09-09T00:10:30;16.30;99.90
23568;DHT22;11962;50.838;4.430;2022-09-09T00:13:22;16.40;99.90
23568;DHT22;11962;50.838;4.430;2022-09-09T00:16:00;16.40;99.90
23568;DHT22;11962;50.838;4.430;2022-09-09T00:21:39;16.40;99.90
23568;DHT22;11962;50.838;4.430;2022-09-09T00:26:48;16.30;99.90
23568;DHT22;11962;50.838;4.430;2022-09-09T00:31:44;16.30;99.90
23568;DHT22;11962;50.838;4.430;2022-09-09T00:34:19;16.30;99.90
23568;DHT22;11962;50.838;4.430;2022-09-09T00:36:49;16.20;99.90
23568;DHT22;11962;50.838;4.430;2022-09-09T00:39:37;16.30;99.90
23568;DHT22;11962;50.838;4.430;2022-09-09T00:42:31;16.30;99.90
23568;DHT22;11962;50.838;4.430;2022-09-09T00:48:10;16.40;99.90
23568;DHT22;11962;50.838;4.430;2022-09-09T00:50:59;16.40;99.90
23568;DHT22;11962;50.838;4.430;2022-09-09T00:56:13;16.50;99.90
23568;DHT22;11962;50.838;4.430;2022-09-09T00:59:04;16.50;99.90
23568;DHT22;11962;50.838;4.430;2022-09-09T01:01:33;16.60;99.90
23568;DHT22;11962;50.838;4.430;2022-09-09T01:04:01;16.60;99.90
23568;DHT22;11962;50.838;4.430;2022-09-09T01:06:30;16.60;99.90
23568;DHT22;11962;50.838;4.430;2022-09-09T01:09:32;16.60;99.90
23568;DHT22;11962;50.838;4.430;2022-09-09T01:28:50;16.60;99.90
23568;DHT22;11962;50.838;4.430;2022-09-09T01:31:38;16.60;99.90
23568;DHT22;11962;50.838;4.430;2022-09-09T01:34:14;16.60;99.90
23568;DHT22;11962;50.838;4.430;2022-09-09T01:36:53;16.60;99.90
23568;DHT22;11962;50.838;4.430;2022-09-09T01:39:22;16.50;99.90
23568;DHT22;11962;50.838;4.430;2022-09-09T01:41:48;16.50;99.90
23568;DHT22;11962;50.838;4.430;2022-09-09T01:44:13;16.50;99.90
23568;DHT22;11962;50.838;4.430;2022-09-09T01:46:39;16.50;99.90
23568;DHT22;11962;50.838;4.430;2022-09-09T01:49:06;16.50;99.90
23568;DHT22;11962;50.838;4.430;2022-09-09T01:51:33;16.50;99.90
23568;DHT22;11962;50.838;4.430;2022-09-09T01:53:59;16.50;99.90
23568;DHT22;11962;50.838;4.430;2022-09-09T01:59:11;16.50;99.90
23568;DHT22;11962;50.838;4.430;2022-09-09T02:01:46;16.40;99.90
23568;DHT22;11962;50.838;4.430;2022-09-09T02:04:40;16.40;99.90
23568;DHT22;11962;50.838;4.430;2022-09-09T02:10:19;16.40;99.90
23568;DHT22;11962;50.838;4.430;2022-09-09T02:12:55;16.40;99.90
23568;DHT22;11962;50.838;4.430;2022-09-09T02:15:38;16.40;99.90
23568;DHT22;11962;50.838;4.430;2022-09-09T02:18:08;16.40;99.90
23568;DHT22;11962;50.838;4.430;2022-09-09T02:20:37;16.30;99.90
23568;DHT22;11962;50.838;4.430;2022-09-09T02:23:04;16.30;99.90
23568;DHT22;11962;50.838;4.430;2022-09-09T02:25:40;16.30;99.90
23568;DHT22;11962;50.838;4.430;2022-09-09T02:28:08;16.20;99.90
23568;DHT22;11962;50.838;4.430;2022-09-09T02:30:37;16.20;99.90
23568;DHT22;11962;50.838;4.430;2022-09-09T02:33:05;16.20;99.90
23568;DHT22;11962;50.838;4.430;2022-09-09T02:35:34;16.20;99.90
23568;DHT22;11962;50.838;4.430;2022-09-09T02:38:04;16.30;99.90
23568;DHT22;11962;50.838;4.430;2022-09-09T02:40:44;16.20;99.90
23568;DHT22;11962;50.838;4.430;2022-09-09T02:43:10;16.20;99.90
23568;DHT22;11962;50.838;4.430;2022-09-09T02:45:45;16.20;99.90
23568;DHT22;11962;50.838;4.430;2022-09-09T02:51:16;16.10;99.90
23568;DHT22;11962;50.838;4.430;2022-09-09T02:56:30;16.20;99.90
23568;DHT22;11962;50.838;4.430;2022-09-09T02:58:58;16.20;99.90
23568;DHT22;11962;50.838;4.430;2022-09-09T03:01:24;16.20;99.90
23568;DHT22;11962;50.838;4.430;2022-09-09T03:03:49;16.20;99.90
23568;DHT22;11962;50.838;4.430;2022-09-09T03:06:15;16.20;99.90
23568;DHT22;11962;50.838;4.430;2022-09-09T03:08:41;16.20;99.90
23568;DHT22;11962;50.838;4.430;2022-09-09T03:11:12;16.20;99.90
23568;DHT22;11962;50.838;4.430;2022-09-09T03:13:39;16.20;99.90
23568;DHT22;11962;50.838;4.430;2022-09-09T03:16:05;16.20;99.90
23568;DHT22;11962;50.838;4.430;2022-09-09T03:18:30;16.10;99.90
23568;DHT22;11962;50.838;4.430;2022-09-09T03:20:57;16.20;99.90
23568;DHT22;11962;50.838;4.430;2022-09-09T03:23:24;16.20;99.90
23568;DHT22;11962;50.838;4.430;2022-09-09T03:25:50;16.20;99.90
23568;DHT22;11962;50.838;4.430;2022-09-09T03:28:16;16.20;99.90
23568;DHT22;11962;50.838;4.430;2022-09-09T03:30:42;16.20;99.90
23568;DHT22;11962;50.838;4.430;2022-09-09T03:33:07;16.10;99.90
23568;DHT22;11962;50.838;4.430;2022-09-09T03:35:33;16.20;99.90
23568;DHT22;11962;50.838;4.430;2022-09-09T03:37:59;16.20;99.90
23568;DHT22;11962;50.838;4.430;2022-09-09T03:40:26;16.20;99.90
23568;DHT22;11962;50.838;4.430;2022-09-09T03:42:52;16.10;99.90
23568;DHT22;11962;50.838;4.430;2022-09-09T03:45:17;16.10;99.90
23568;DHT22;11962;50.838;4.430;2022-09-09T03:47:43;16.20;99.90
23568;DHT22;11962;50.838;4.430;2022-09-09T03:50:09;16.20;99.90
23568;DHT22;11962;50.838;4.430;2022-09-09T03:52:37;16.20;99.90
23568;DHT22;11962;50.838;4.430;2022-09-09T03:55:04;16.20;99.90
23568;DHT22;11962;50.838;4.430;2022-09-09T03:57:29;16.20;99.90
23568;DHT22;11962;50.838;4.430;2022-09-09T03:59:55;16.20;99.90
23568;DHT22;11962;50.838;4.430;2022-09-09T04:02:21;16.10;99.90
23568;DHT22;11962;50.838;4.430;2022-09-09T04:04:47;16.20;99.90
23568;DHT22;11962;50.838;4.430;2022-09-09T04:07:12;16.20;99.90
23568;DHT22;11962;50.838;4.430;2022-09-09T04:09:38;16.20;99.90
23568;DHT22;11962;50.838;4.430;2022-09-09T04:12:04;16.20;99.90
23568;DHT22;11962;50.838;4.430;2022-09-09T04:14:30;16.20;99.90
23568;DHT22;11962;50.838;4.430;2022-09-09T04:16:55;16.20;99.90
23568;DHT22;11962;50.838;4.430;2022-09-09T04:19:23;16.30;99.90
23568;DHT22;11962;50.838;4.430;2022-09-09T04:21:49;16.30;99.90
23568;DHT22;11962;50.838;4.430;2022-09-09T04:24:16;16.40;99.90
23568;DHT22;11962;50.838;4.430;2022-09-09T04:26:42;16.40;99.90
23568;DHT22;11962;50.838;4.430;2022-09-09T04:29:07;16.40;99.90
23568;DHT22;11962;50.838;4.430;2022-09-09T04:31:33;16.30;99.90
23568;DHT22;11962;50.838;4.430;2022-09-09T04:33:59;16.30;99.90
23568;DHT22;11962;50.838;4.430;2022-09-09T04:36:31;16.30;99.90
23568;DHT22;11962;50.838;4.430;2022-09-09T04:38:57;16.20;99.90
23568;DHT22;11962;50.838;4.430;2022-09-09T04:41:24;16.20;99.90
23568;DHT22;11962;50.838;4.430;2022-09-09T04:43:51;16.10;99.90
23568;DHT22;11962;50.838;4.430;2022-09-09T04:46:19;16.10;99.90
23568;DHT22;11962;50.838;4.430;2022-09-09T04:48:45;16.10;99.90
23568;DHT22;11962;50.838;4.430;2022-09-09T04:51:13;16.10;99.90
23568;DHT22;11962;50.838;4.430;2022-09-09T04:53:39;16.10;99.90
23568;DHT22;11962;50.838;4.430;2022-09-09T04:56:11;16.10;99.90
23568;DHT22;11962;50.838;4.430;2022-09-09T04:58:38;16.10;99.90
23568;DHT22;11962;50.838;4.430;2022-09-09T05:01:06;16.10;99.90
23568;DHT22;11962;50.838;4.430;2022-09-09T05:03:32;16.10;99.90
23568;DHT22;11962;50.838;4.430;2022-09-09T05:08:30;16.10;99.90
23568;DHT22;11962;50.838;4.430;2022-09-09T05:10:55;16.10;99.90
23568;DHT22;11962;50.838;4.430;2022-09-09T05:13:21;16.10;99.90
23568;DHT22;11962;50.838;4.430;2022-09-09T05:15:52;16.10;99.90
23568;DHT22;11962;50.838;4.430;2022-09-09T05:18:18;16.10;99.90
23568;DHT22;11962;50.838;4.430;2022-09-09T05:20:44;16.20;99.90
23568;DHT22;11962;50.838;4.430;2022-09-09T05:23:09;16.20;99.90
23568;DHT22;11962;50.838;4.430;2022-09-09T05:25:39;16.30;99.90
23568;DHT22;11962;50.838;4.430;2022-09-09T05:28:06;16.30;99.90
23568;DHT22;11962;50.838;4.430;2022-09-09T05:30:33;16.40;99.90
23568;DHT22;11962;50.838;4.430;2022-09-09T05:32:59;16.50;99.90
23568;DHT22;11962;50.838;4.430;2022-09-09T05:35:25;16.60;99.90
23568;DHT22;11962;50.838;4.430;2022-09-09T05:37:51;16.60;99.90
23568;DHT22;11962;50.838;4.430;2022-09-09T05:40:16;16.70;99.90
23568;DHT22;11962;50.838;4.430;2022-09-09T05:42:42;16.80;99.90
23568;DHT22;11962;50.838;4.430;2022-09-09T05:45:08;16.80;99.90
23568;DHT22;11962;50.838;4.430;2022-09-09T05:47:35;16.80;99.90
23568;DHT22;11962;50.838;4.430;2022-09-09T05:50:03;16.90;99.90
23568;DHT22;11962;50.838;4.430;2022-09-09T05:52:29;17.00;99.90
23568;DHT22;11962;50.838;4.430;2022-09-09T05:54:55;16.90;99.90
23568;DHT22;11962;50.838;4.430;2022-09-09T05:57:49;17.00;99.90
23568;DHT22;11962;50.838;4.430;2022-09-09T06:00:15;17.00;99.90
23568;DHT22;11962;50.838;4.430;2022-09-09T06:02:41;17.00;99.90
23568;DHT22;11962;50.838;4.430;2022-09-09T06:05:07;17.10;99.90
23568;DHT22;11962;50.838;4.430;2022-09-09T06:07:33;17.20;99.90
23568;DHT22;11962;50.838;4.430;2022-09-09T06:09:59;17.40;99.90
23568;DHT22;11962;50.838;4.430;2022-09-09T06:12:26;17.60;99.90
23568;DHT22;11962;50.838;4.430;2022-09-09T06:14:51;17.70;99.90
23568;DHT22;11962;50.838;4.430;2022-09-09T06:17:17;17.60;99.90
23568;DHT22;11962;50.838;4.430;2022-09-09T06:19:43;17.70;99.90
23568;DHT22;11962;50.838;4.430;2022-09-09T06:22:08;17.90;99.90
23568;DHT22;11962;50.838;4.430;2022-09-09T06:24:37;18.10;99.90
23568;DHT22;11962;50.838;4.430;2022-09-09T06:27:03;18.30;99.90
23568;DHT22;11962;50.838;4.430;2022-09-09T06:29:30;18.40;99.90
23568;DHT22;11962;50.838;4.430;2022-09-09T06:31:56;18.30;99.90
23568;DHT22;11962;50.838;4.430;2022-09-09T06:34:22;18.30;99.90
23568;DHT22;11962;50.838;4.430;2022-09-09T06:36:47;18.40;99.90
23568;DHT22;11962;50.838;4.430;2022-09-09T06:39:13;18.70;99.90
23568;DHT22;11962;50.838;4.430;2022-09-09T06:41:41;18.80;99.90
23568;DHT22;11962;50.838;4.430;2022-09-09T06:44:07;18.90;99.90
23568;DHT22;11962;50.838;4.430;2022-09-09T06:46:33;18.80;99.90
23568;DHT22;11962;50.838;4.430;2022-09-09T06:49:01;18.70;99.90
23568;DHT22;11962;50.838;4.430;2022-09-09T06:51:30;18.80;99.90
23568;DHT22;11962;50.838;4.430;2022-09-09T06:53:58;18.90;99.90
23568;DHT22;11962;50.838;4.430;2022-09-09T06:56:42;19.00;99.90
23568;DHT22;11962;50.838;4.430;2022-09-09T06:59:09;18.80;99.90
23568;DHT22;11962;50.838;4.430;2022-09-09T07:01:37;18.70;99.90
23568;DHT22;11962;50.838;4.430;2022-09-09T07:04:06;18.80;99.90
23568;DHT22;11962;50.838;4.430;2022-09-09T07:06:44;18.90;99.90
23568;DHT22;11962;50.838;4.430;2022-09-09T07:09:12;19.00;99.90
23568;DHT22;11962;50.838;4.430;2022-09-09T07:11:42;19.00;99.90
23568;DHT22;11962;50.838;4.430;2022-09-09T07:14:08;18.90;99.90
23568;DHT22;11962;50.838;4.430;2022-09-09T07:16:34;19.00;99.90
23568;DHT22;11962;50.838;4.430;2022-09-09T07:19:03;19.00;99.90
23568;DHT22;11962;50.838;4.430;2022-09-09T07:21:30;19.00;99.90
23568;DHT22;11962;50.838;4.430;2022-09-09T07:23:56;19.00;99.90
23568;DHT22;11962;50.838;4.430;2022-09-09T07:26:50;19.00;99.90
23568;DHT22;11962;50.838;4.430;2022-09-09T07:29:17;19.10;99.90
23568;DHT22;11962;50.838;4.430;2022-09-09T07:31:43;19.00;99.90
23568;DHT22;11962;50.838;4.430;2022-09-09T07:34:08;19.00;99.90
23568;DHT22;11962;50.838;4.430;2022-09-09T07:36:36;19.00;99.90
23568;DHT22;11962;50.838;4.430;2022-09-09T07:39:08;18.80;99.90
23568;DHT22;11962;50.838;4.430;2022-09-09T07:42:09;18.90;99.90
23568;DHT22;11962;50.838;4.430;2022-09-09T07:44:36;18.80;99.90
23568;DHT22;11962;50.838;4.430;2022-09-09T07:47:03;18.80;99.90
23568;DHT22;11962;50.838;4.430;2022-09-09T07:49:28;18.80;99.90
23568;DHT22;11962;50.838;4.430;2022-09-09T07:51:54;18.80;99.90
23568;DHT22;11962;50.838;4.430;2022-09-09T07:54:20;18.70;99.90
23568;DHT22;11962;50.838;4.430;2022-09-09T07:56:49;18.70;99.90
23568;DHT22;11962;50.838;4.430;2022-09-09T07:59:15;18.60;99.90
23568;DHT22;11962;50.838;4.430;2022-09-09T08:01:43;18.60;99.90
23568;DHT22;11962;50.838;4.430;2022-09-09T08:04:13;18.70;99.90
23568;DHT22;11962;50.838;4.430;2022-09-09T08:06:53;19.00;99.90
23568;DHT22;11962;50.838;4.430;2022-09-09T08:09:19;19.40;99.90
23568;DHT22;11962;50.838;4.430;2022-09-09T08:12:04;19.90;99.90
23568;DHT22;11962;50.838;4.430;2022-09-09T08:14:31;20.40;99.90
23568;DHT22;11962;50.838;4.430;2022-09-09T08:16:57;20.80;99.90
23568;DHT22;11962;50.838;4.430;2022-09-09T08:19:23;21.10;99.90
23568;DHT22;11962;50.838;4.430;2022-09-09T08:21:49;21.20;99.90
23568;DHT22;11962;50.838;4.430;2022-09-09T08:24:15;21.00;99.90
23568;DHT22;11962;50.838;4.430;2022-09-09T08:27:01;21.00;99.90
23568;DHT22;11962;50.838;4.430;2022-09-09T08:29:26;21.00;99.90
23568;DHT22;11962;50.838;4.430;2022-09-09T08:31:55;21.10;99.90
23568;DHT22;11962;50.838;4.430;2022-09-09T08:34:23;21.30;99.90
23568;DHT22;11962;50.838;4.430;2022-09-09T08:36:51;21.50;99.90
23568;DHT22;11962;50.838;4.430;2022-09-09T08:39:18;21.50;99.90
23568;DHT22;11962;50.838;4.430;2022-09-09T08:47:07;20.80;99.90
23568;DHT22;11962;50.838;4.430;2022-09-09T08:52:21;20.90;99.90
23568;DHT22;11962;50.838;4.430;2022-09-09T08:54:48;20.70;99.90
23568;DHT22;11962;50.838;4.430;2022-09-09T08:57:20;20.70;99.90
23568;DHT22;11962;50.838;4.430;2022-09-09T08:59:47;20.70;99.90
23568;DHT22;11962;50.838;4.430;2022-09-09T09:02:24;20.60;99.90
23568;DHT22;11962;50.838;4.430;2022-09-09T09:08:04;20.70;99.90
23568;DHT22;11962;50.838;4.430;2022-09-09T09:10:44;21.00;99.90
23568;DHT22;11962;50.838;4.430;2022-09-09T09:19:10;20.60;99.90
23568;DHT22;11962;50.838;4.430;2022-09-09T09:21:44;20.50;99.90
23568;DHT22;11962;50.838;4.430;2022-09-09T09:24:22;20.30;99.90
23568;DHT22;11962;50.838;4.430;2022-09-09T09:26:49;20.10;99.90
23568;DHT22;11962;50.838;4.430;2022-09-09T09:29:19;20.00;99.90
23568;DHT22;11962;50.838;4.430;2022-09-09T09:31:52;19.80;99.90
23568;DHT22;11962;50.838;4.430;2022-09-09T09:34:20;19.80;99.90
23568;DHT22;11962;50.838;4.430;2022-09-09T09:36:54;19.80;99.90
23568;DHT22;11962;50.838;4.430;2022-09-09T09:39:25;19.60;99.90
23568;DHT22;11962;50.838;4.430;2022-09-09T09:41:51;19.60;99.90
23568;DHT22;11962;50.838;4.430;2022-09-09T09:44:24;19.60;99.90
23568;DHT22;11962;50.838;4.430;2022-09-09T09:46:50;19.70;99.90
23568;DHT22;11962;50.838;4.430;2022-09-09T09:49:16;19.60;99.90
23568;DHT22;11962;50.838;4.430;2022-09-09T09:51:42;19.70;99.90
23568;DHT22;11962;50.838;4.430;2022-09-09T09:54:22;19.70;99.90
23568;DHT22;11962;50.838;4.430;2022-09-09T09:56:52;19.80;99.90
23568;DHT22;11962;50.838;4.430;2022-09-09T09:59:33;19.80;99.90
23568;DHT22;11962;50.838;4.430;2022-09-09T10:04:42;19.80;99.90
23568;DHT22;11962;50.838;4.430;2022-09-09T10:07:27;19.70;99.90
23568;DHT22;11962;50.838;4.430;2022-09-09T10:09:57;19.80;99.90
23568;DHT22;11962;50.838;4.430;2022-09-09T10:12:52;19.90;99.90
23568;DHT22;11962;50.838;4.430;2022-09-09T10:15:48;20.00;99.90
23568;DHT22;11962;50.838;4.430;2022-09-09T10:40:59;20.60;99.90
23568;DHT22;11962;50.838;4.430;2022-09-09T10:57:14;21.20;99.90
23568;DHT22;11962;50.838;4.430;2022-09-09T10:59:47;21.60;99.90
23568;DHT22;11962;50.838;4.430;2022-09-09T11:02:29;22.30;99.90
23568;DHT22;11962;50.838;4.430;2022-09-09T11:05:02;23.00;99.90
23568;DHT22;11962;50.838;4.430;2022-09-09T11:07:42;23.30;99.90
23568;DHT22;11962;50.838;4.430;2022-09-09T11:10:38;23.40;99.90
23568;DHT22;11962;50.838;4.430;2022-09-09T11:13:24;23.60;99.90
23568;DHT22;11962;50.838;4.430;2022-09-09T11:18:39;24.00;99.90
23568;DHT22;11962;50.838;4.430;2022-09-09T11:21:14;23.90;99.90
23568;DHT22;11962;50.838;4.430;2022-09-09T11:23:44;23.80;99.90
23568;DHT22;11962;50.838;4.430;2022-09-09T11:26:27;23.90;99.90
23568;DHT22;11962;50.838;4.430;2022-09-09T11:42:46;23.50;99.90
23568;DHT22;11962;50.838;4.430;2022-09-09T11:45:31;23.40;99.90
23568;DHT22;11962;50.838;4.430;2022-09-09T11:48:03;23.30;99.90
23568;DHT22;11962;50.838;4.430;2022-09-09T11:50:36;23.10;99.90
23568;DHT22;11962;50.838;4.430;2022-09-09T11:53:22;23.10;99.90
23568;DHT22;11962;50.838;4.430;2022-09-09T11:58:27;22.80;99.90
23568;DHT22;11962;50.838;4.430;2022-09-09T12:00:58;22.80;99.90
23568;DHT22;11962;50.838;4.430;2022-09-09T12:03:48;22.90;99.90
23568;DHT22;11962;50.838;4.430;2022-09-09T12:06:17;22.90;99.90
23568;DHT22;11962;50.838;4.430;2022-09-09T12:08:46;22.70;99.90
23568;DHT22;11962;50.838;4.430;2022-09-09T12:11:24;22.60;99.90
23568;DHT22;11962;50.838;4.430;2022-09-09T12:13:56;22.60;99.90
23568;DHT22;11962;50.838;4.430;2022-09-09T12:16:33;22.60;99.90
23568;DHT22;11962;50.838;4.430;2022-09-09T12:19:05;22.60;99.90
23568;DHT22;11962;50.838;4.430;2022-09-09T12:21:54;22.60;99.90
23568;DHT22;11962;50.838;4.430;2022-09-09T12:24:40;22.50;99.90
23568;DHT22;11962;50.838;4.430;2022-09-09T12:27:28;22.40;99.90
23568;DHT22;11962;50.838;4.430;2022-09-09T12:30:17;22.30;99.90
23568;DHT22;11962;50.838;4.430;2022-09-09T12:32:43;22.20;99.90
23568;DHT22;11962;50.838;4.430;2022-09-09T12:37:57;22.40;99.90
23568;DHT22;11962;50.838;4.430;2022-09-09T12:40:27;22.50;99.90
23568;DHT22;11962;50.838;4.430;2022-09-09T12:42:54;22.70;99.90
23568;DHT22;11962;50.838;4.430;2022-09-09T12:45:27;22.90;99.90
23568;DHT22;11962;50.838;4.430;2022-09-09T12:50:22;23.50;99.90
23568;DHT22;11962;50.838;4.430;2022-09-09T12:52:52;23.70;99.90
23568;DHT22;11962;50.838;4.430;2022-09-09T12:55:21;23.80;99.90
23568;DHT22;11962;50.838;4.430;2022-09-09T12:57:51;23.90;99.90
23568;DHT22;11962;50.838;4.430;2022-09-09T13:00:55;24.10;99.90
23568;DHT22;11962;50.838;4.430;2022-09-09T13:03:23;24.10;99.90
23568;DHT22;11962;50.838;4.430;2022-09-09T13:05:50;23.90;99.90
23568;DHT22;11962;50.838;4.430;2022-09-09T13:08:17;23.70;99.90
23568;DHT22;11962;50.838;4.430;2022-09-09T13:11:01;23.70;99.90
23568;DHT22;11962;50.838;4.430;2022-09-09T13:13:34;23.70;99.90
23568;DHT22;11962;50.838;4.430;2022-09-09T13:16:15;23.70;99.90
23568;DHT22;11962;50.838;4.430;2022-09-09T13:18:43;23.80;99.90
23568;DHT22;11962;50.838;4.430;2022-09-09T13:21:09;23.80;99.90
23568;DHT22;11962;50.838;4.430;2022-09-09T13:23:36;23.70;99.90
23568;DHT22;11962;50.838;4.430;2022-09-09T13:26:04;23.70;99.90
23568;DHT22;11962;50.838;4.430;2022-09-09T13:28:31;23.60;99.90
23568;DHT22;11962;50.838;4.430;2022-09-09T13:31:18;23.50;99.90
23568;DHT22;11962;50.838;4.430;2022-09-09T13:33:45;23.60;99.90
23568;DHT22;11962;50.838;4.430;2022-09-09T13:36:11;23.70;99.90
23568;DHT22;11962;50.838;4.430;2022-09-09T13:38:52;23.70;99.90
23568;DHT22;11962;50.838;4.430;2022-09-09T13:41:23;23.80;99.90
23568;DHT22;11962;50.838;4.430;2022-09-09T13:43:50;24.00;99.90
23568;DHT22;11962;50.838;4.430;2022-09-09T13:46:39;24.00;99.90
23568;DHT22;11962;50.838;4.430;2022-09-09T13:51:49;24.30;99.90
23568;DHT22;11962;50.838;4.430;2022-09-09T13:54:18;24.50;99.90
23568;DHT22;11962;50.838;4.430;2022-09-09T13:56:48;24.50;99.90
23568;DHT22;11962;50.838;4.430;2022-09-09T13:59:19;24.80;99.90
23568;DHT22;11962;50.838;4.430;2022-09-09T14:05:07;24.70;99.90
23568;DHT22;11962;50.838;4.430;2022-09-09T14:07:34;24.20;99.90
23568;DHT22;11962;50.838;4.430;2022-09-09T14:09:59;23.90;99.90
23568;DHT22;11962;50.838;4.430;2022-09-09T14:12:25;23.80;99.90
23568;DHT22;11962;50.838;4.430;2022-09-09T14:14:51;24.00;99.90
23568;DHT22;11962;50.838;4.430;2022-09-09T14:17:16;24.30;99.90
23568;DHT22;11962;50.838;4.430;2022-09-09T14:19:42;24.40;99.90
23568;DHT22;11962;50.838;4.430;2022-09-09T14:22:08;24.50;99.90
23568;DHT22;11962;50.838;4.430;2022-09-09T14:24:34;24.40;99.90
23568;DHT22;11962;50.838;4.430;2022-09-09T14:26:59;24.20;99.90
23568;DHT22;11962;50.838;4.430;2022-09-09T14:29:25;24.00;99.90
23568;DHT22;11962;50.838;4.430;2022-09-09T14:31:53;23.80;99.90
23568;DHT22;11962;50.838;4.430;2022-09-09T14:34:18;23.70;99.90
23568;DHT22;11962;50.838;4.430;2022-09-09T14:36:44;23.60;99.90
23568;DHT22;11962;50.838;4.430;2022-09-09T14:39:10;23.50;99.90
23568;DHT22;11962;50.838;4.430;2022-09-09T14:41:36;23.50;99.90
23568;DHT22;11962;50.838;4.430;2022-09-09T14:44:01;23.50;99.90
23568;DHT22;11962;50.838;4.430;2022-09-09T14:46:39;23.70;99.90
23568;DHT22;11962;50.838;4.430;2022-09-09T14:49:05;23.80;99.90
23568;DHT22;11962;50.838;4.430;2022-09-09T14:51:30;23.70;99.90
23568;DHT22;11962;50.838;4.430;2022-09-09T14:53:58;23.70;99.90
23568;DHT22;11962;50.838;4.430;2022-09-09T14:56:27;23.70;99.90
23568;DHT22;11962;50.838;4.430;2022-09-09T14:58:54;23.70;99.90
23568;DHT22;11962;50.838;4.430;2022-09-09T15:01:38;23.60;99.90
23568;DHT22;11962;50.838;4.430;2022-09-09T15:04:05;23.50;99.90
23568;DHT22;11962;50.838;4.430;2022-09-09T15:06:32;23.50;99.90
23568;DHT22;11962;50.838;4.430;2022-09-09T15:08:59;23.50;99.90
23568;DHT22;11962;50.838;4.430;2022-09-09T15:11:27;23.40;99.90
23568;DHT22;11962;50.838;4.430;2022-09-09T15:13:53;23.20;99.90
23568;DHT22;11962;50.838;4.430;2022-09-09T15:16:21;23.10;99.90
23568;DHT22;11962;50.838;4.430;2022-09-09T15:18:51;23.00;99.90
23568;DHT22;11962;50.838;4.430;2022-09-09T15:21:18;23.00;99.90
23568;DHT22;11962;50.838;4.430;2022-09-09T15:23:45;23.10;99.90
23568;DHT22;11962;50.838;4.430;2022-09-09T15:26:11;23.20;99.90
23568;DHT22;11962;50.838;4.430;2022-09-09T15:28:40;23.20;99.90
23568;DHT22;11962;50.838;4.430;2022-09-09T15:34:11;23.30;99.90
23568;DHT22;11962;50.838;4.430;2022-09-09T15:36:43;23.30;99.90
23568;DHT22;11962;50.838;4.430;2022-09-09T15:39:14;23.30;99.90
23568;DHT22;11962;50.838;4.430;2022-09-09T15:41:45;23.30;99.90
23568;DHT22;11962;50.838;4.430;2022-09-09T15:44:12;23.30;99.90
23568;DHT22;11962;50.838;4.430;2022-09-09T15:46:39;23.20;99.90
23568;DHT22;11962;50.838;4.430;2022-09-09T15:49:09;23.10;99.90
23568;DHT22;11962;50.838;4.430;2022-09-09T15:51:36;23.10;99.90
23568;DHT22;11962;50.838;4.430;2022-09-09T15:54:03;23.00;99.90
23568;DHT22;11962;50.838;4.430;2022-09-09T15:56:29;23.00;99.90
23568;DHT22;11962;50.838;4.430;2022-09-09T15:59:02;23.00;99.90
23568;DHT22;11962;50.838;4.430;2022-09-09T16:01:32;23.10;99.90
23568;DHT22;11962;50.838;4.430;2022-09-09T16:03:59;23.10;99.90
23568;DHT22;11962;50.838;4.430;2022-09-09T16:06:26;23.10;99.90
23568;DHT22;11962;50.838;4.430;2022-09-09T16:08:53;23.00;99.90
23568;DHT22;11962;50.838;4.430;2022-09-09T16:11:25;23.00;99.90
23568;DHT22;11962;50.838;4.430;2022-09-09T16:13:52;22.90;99.90
23568;DHT22;11962;50.838;4.430;2022-09-09T16:16:21;22.70;99.90
23568;DHT22;11962;50.838;4.430;2022-09-09T16:18:52;22.60;99.90
23568;DHT22;11962;50.838;4.430;2022-09-09T16:21:19;22.40;99.90
23568;DHT22;11962;50.838;4.430;2022-09-09T16:23:46;22.10;99.90
23568;DHT22;11962;50.838;4.430;2022-09-09T16:26:13;22.10;99.90
23568;DHT22;11962;50.838;4.430;2022-09-09T16:28:39;22.00;99.90
23568;DHT22;11962;50.838;4.430;2022-09-09T16:31:07;21.90;99.90
23568;DHT22;11962;50.838;4.430;2022-09-09T16:33:33;21.80;99.90
23568;DHT22;11962;50.838;4.430;2022-09-09T16:36:08;21.60;99.90
23568;DHT22;11962;50.838;4.430;2022-09-09T16:38:35;21.30;99.90
23568;DHT22;11962;50.838;4.430;2022-09-09T16:41:02;21.00;99.90
23568;DHT22;11962;50.838;4.430;2022-09-09T16:43:30;20.90;99.90
23568;DHT22;11962;50.838;4.430;2022-09-09T16:45:56;20.90;99.90
23568;DHT22;11962;50.838;4.430;2022-09-09T16:48:22;21.00;99.90
23568;DHT22;11962;50.838;4.430;2022-09-09T16:50:47;21.00;99.90
23568;DHT22;11962;50.838;4.430;2022-09-09T16:53:14;21.20;99.90
23568;DHT22;11962;50.838;4.430;2022-09-09T16:55:41;21.30;99.90
23568;DHT22;11962;50.838;4.430;2022-09-09T16:58:10;21.50;99.90
23568;DHT22;11962;50.838;4.430;2022-09-09T17:00:36;21.60;99.90
23568;DHT22;11962;50.838;4.430;2022-09-09T17:03:01;21.80;99.90
23568;DHT22;11962;50.838;4.430;2022-09-09T17:05:28;21.80;99.90
23568;DHT22;11962;50.838;4.430;2022-09-09T17:07:54;21.90;99.90
23568;DHT22;11962;50.838;4.430;2022-09-09T17:10:23;21.80;99.90
23568;DHT22;11962;50.838;4.430;2022-09-09T17:12:48;21.70;99.90
23568;DHT22;11962;50.838;4.430;2022-09-09T17:15:14;21.60;99.90
23568;DHT22;11962;50.838;4.430;2022-09-09T17:17:40;21.60;99.90
23568;DHT22;11962;50.838;4.430;2022-09-09T17:20:10;21.50;99.90
23568;DHT22;11962;50.838;4.430;2022-09-09T17:22:36;21.30;99.90
23568;DHT22;11962;50.838;4.430;2022-09-09T17:25:02;21.30;99.90
23568;DHT22;11962;50.838;4.430;2022-09-09T17:27:28;21.10;99.90
23568;DHT22;11962;50.838;4.430;2022-09-09T17:29:57;21.00;99.90
23568;DHT22;11962;50.838;4.430;2022-09-09T17:32:22;20.80;99.90
23568;DHT22;11962;50.838;4.430;2022-09-09T17:34:48;20.60;99.90
23568;DHT22;11962;50.838;4.430;2022-09-09T17:37:14;20.50;99.90
23568;DHT22;11962;50.838;4.430;2022-09-09T17:39:39;20.30;99.90
23568;DHT22;11962;50.838;4.430;2022-09-09T17:42:05;20.20;99.90
23568;DHT22;11962;50.838;4.430;2022-09-09T17:44:33;20.10;99.90
23568;DHT22;11962;50.838;4.430;2022-09-09T17:46:58;20.00;99.90
23568;DHT22;11962;50.838;4.430;2022-09-09T17:49:25;19.90;99.90
23568;DHT22;11962;50.838;4.430;2022-09-09T17:51:50;19.90;99.90
23568;DHT22;11962;50.838;4.430;2022-09-09T17:54:18;19.90;99.90
23568;DHT22;11962;50.838;4.430;2022-09-09T17:56:45;19.80;99.90
23568;DHT22;11962;50.838;4.430;2022-09-09T17:59:13;19.70;99.90
23568;DHT22;11962;50.838;4.430;2022-09-09T18:01:42;19.60;99.90
23568;DHT22;11962;50.838;4.430;2022-09-09T18:04:14;19.60;99.90
23568;DHT22;11962;50.838;4.430;2022-09-09T18:06:42;19.50;99.90